createdAt,value
2023-03-28T00:03:39.447Z,45.26
2023-03-28T00:08:45.821Z,45.40
2023-03-28T00:13:48.761Z,45.45
2023-03-28T00:18:51.563Z,45.68
2023-03-28T00:23:56.175Z,45.85
2023-03-28T00:28:58.927Z,45.93
2023-03-28T00:34:01.765Z,45.85
2023-03-28T00:39:06.908Z,45.76
2023-03-28T00:44:43.213Z,45.84
2023-03-28T00:49:46.657Z,46.09
2023-03-28T00:54:51.190Z,46.21
2023-03-28T00:59:53.962Z,46.26
2023-03-28T01:04:59.356Z,46.19
2023-03-28T01:10:05.096Z,46.26
2023-03-28T01:15:09.772Z,46.44
2023-03-28T01:20:35.913Z,46.47
2023-03-28T01:26:21.003Z,46.54
2023-03-28T01:31:33.871Z,46.38
2023-03-28T01:37:11.935Z,46.50
2023-03-28T01:42:24.613Z,46.36
2023-03-28T01:47:29.257Z,46.50
2023-03-28T01:52:36.116Z,46.98
2023-03-28T01:57:42.240Z,46.89
2023-03-28T02:02:49.345Z,46.93
2023-03-28T02:08:11.828Z,46.98
2023-03-28T02:13:19.742Z,47.23
2023-03-28T02:18:38.138Z,47.15
2023-03-28T02:24:02.714Z,47.20
2023-03-28T02:29:23.900Z,47.13
2023-03-28T02:34:56.120Z,47.15
2023-03-28T02:40:07.223Z,46.98
2023-03-28T02:45:35.542Z,47.04
2023-03-28T02:50:40.980Z,47.12
2023-03-28T02:55:47.273Z,46.82
2023-03-28T03:01:14.697Z,46.81
2023-03-28T03:06:19.334Z,47.01
2023-03-28T03:11:25.018Z,47.06
2023-03-28T03:16:29.157Z,46.98
2023-03-28T03:21:33.518Z,47.27
2023-03-28T03:26:37.701Z,46.96
2023-03-28T03:31:41.924Z,46.70
2023-03-28T03:37:17.943Z,46.87
2023-03-28T03:42:22.272Z,46.89
2023-03-28T03:47:25.205Z,46.76
2023-03-28T03:52:28.009Z,46.57
2023-03-28T03:57:32.367Z,46.74
2023-03-28T04:02:37.827Z,46.56
2023-03-28T04:07:42.192Z,46.48
2023-03-28T04:12:54.342Z,46.70
2023-03-28T04:17:57.277Z,46.45
2023-03-28T04:23:01.851Z,46.46
2023-03-28T04:28:09.277Z,46.33
2023-03-28T04:33:18.961Z,46.62
2023-03-28T04:38:23.677Z,46.28
2023-03-28T04:43:33.997Z,46.47
2023-03-28T04:48:36.992Z,46.50
2023-03-28T04:53:40.348Z,46.50
2023-03-28T04:59:04.446Z,46.43
2023-03-28T05:04:07.727Z,46.44
2023-03-28T05:09:12.312Z,46.72
2023-03-28T05:14:16.523Z,46.68
2023-03-28T05:19:25.239Z,46.49
2023-03-28T05:24:44.241Z,46.83
2023-03-28T05:29:53.647Z,46.68
2023-03-28T05:34:56.899Z,46.63
2023-03-28T05:40:06.377Z,46.85
2023-03-28T05:45:12.623Z,46.67
2023-03-28T05:50:35.697Z,46.88
2023-03-28T05:55:42.367Z,46.87
2023-03-28T06:00:46.614Z,46.78
2023-03-28T06:05:49.646Z,46.82
2023-03-28T06:11:03.008Z,47.04
2023-03-28T06:16:14.385Z,46.73
2023-03-28T06:21:17.516Z,47.01
2023-03-28T06:26:21.887Z,47.00
2023-03-28T06:31:26.159Z,46.95
2023-03-28T06:36:28.998Z,46.89
2023-03-28T06:41:32.215Z,46.81
2023-03-28T06:46:36.552Z,46.70
2023-03-28T06:51:40.310Z,46.81
2023-03-28T06:56:43.529Z,46.78
2023-03-28T07:01:47.873Z,46.54
2023-03-28T07:06:53.341Z,46.82
2023-03-28T07:11:56.447Z,46.45
2023-03-28T07:17:01.079Z,46.10
2023-03-28T07:22:04.139Z,35.39
2023-03-28T07:27:15.423Z,31.17
2023-03-28T07:32:22.298Z,30.52
2023-03-28T07:37:25.336Z,30.36
2023-03-28T07:42:46.042Z,36.72
2023-03-28T07:47:50.370Z,38.89
2023-03-28T07:52:57.580Z,39.18
2023-03-28T07:58:02.458Z,39.02
2023-03-28T08:03:09.644Z,39.26
2023-03-28T08:08:12.828Z,40.08
2023-03-28T08:13:15.997Z,40.53
2023-03-28T08:18:21.822Z,41.51
2023-03-28T08:23:26.391Z,37.74
2023-03-28T08:28:54.879Z,42.70
2023-03-28T08:33:59.374Z,43.45
2023-03-28T08:39:10.001Z,43.59
2023-03-28T08:44:26.053Z,44.05
2023-03-28T08:49:32.421Z,44.64
2023-03-28T08:54:37.103Z,45.11
2023-03-28T08:59:41.819Z,45.34
2023-03-28T09:04:46.050Z,46.18
2023-03-28T09:09:59.026Z,46.39
2023-03-28T09:15:34.315Z,46.43
2023-03-28T09:20:43.240Z,46.01
2023-03-28T09:26:09.481Z,46.98
2023-03-28T09:31:14.411Z,49.36
2023-03-28T09:36:20.213Z,50.64
2023-03-28T09:41:27.146Z,50.77
2023-03-28T09:46:48.645Z,52.08
2023-03-28T09:52:17.473Z,51.81
2023-03-28T09:57:20.714Z,52.10
2023-03-28T10:02:26.989Z,53.42
2023-03-28T10:07:34.775Z,53.22
2023-03-28T10:12:48.924Z,52.96
2023-03-28T10:17:51.972Z,51.24
2023-03-28T10:23:04.363Z,50.98
2023-03-28T10:28:14.116Z,50.13
2023-03-28T10:33:24.655Z,49.82
2023-03-28T10:38:48.429Z,49.43
2023-03-28T10:44:18.746Z,49.31
2023-03-28T10:49:31.960Z,48.66
2023-03-28T10:54:51.039Z,33.32
2023-03-28T11:00:10.682Z,29.58
2023-03-28T11:05:23.112Z,39.07
2023-03-28T11:10:31.932Z,39.62
2023-03-28T11:15:43.180Z,39.79
2023-03-28T11:21:02.175Z,40.30
2023-03-28T11:26:09.620Z,40.52
2023-03-28T11:31:46.678Z,41.24
2023-03-28T11:36:53.423Z,41.14
2023-03-28T11:41:59.565Z,41.47
2023-03-28T11:47:15.768Z,41.87
2023-03-28T11:52:22.436Z,42.08
2023-03-28T11:57:29.251Z,42.37
2023-03-28T12:02:42.171Z,42.33
2023-03-28T12:07:48.250Z,42.33
2023-03-28T12:13:06.883Z,42.00
2023-03-28T12:18:16.119Z,41.79
2023-03-28T12:23:22.329Z,41.61
2023-03-28T12:29:03.179Z,42.29
2023-03-28T12:34:09.301Z,42.34
2023-03-28T12:39:38.336Z,43.34
2023-03-28T12:44:53.723Z,43.95
2023-03-28T12:49:57.916Z,44.31
2023-03-28T12:55:02.086Z,44.98
2023-03-28T13:00:26.748Z,44.92
2023-03-28T13:05:57.258Z,44.59
2023-03-28T13:11:07.881Z,45.20
2023-03-28T13:16:15.901Z,45.45
2023-03-28T13:21:42.470Z,45.38
2023-03-28T13:26:54.672Z,44.66
2023-03-28T13:32:03.222Z,44.05
2023-03-28T13:37:22.666Z,43.40
2023-03-28T13:42:30.599Z,42.78
2023-03-28T13:47:38.317Z,32.95
2023-03-28T13:52:41.276Z,36.23
2023-03-28T13:57:44.199Z,38.06
2023-03-28T14:02:49.002Z,38.09
2023-03-28T14:07:52.582Z,39.08
2023-03-28T14:12:55.941Z,39.37
2023-03-28T14:18:00.182Z,39.52
2023-03-28T14:23:03.181Z,39.47
2023-03-28T14:28:09.527Z,39.90
2023-03-28T14:33:20.269Z,40.13
2023-03-28T14:38:29.145Z,40.01
2023-03-28T14:43:32.217Z,39.87
2023-03-28T14:48:36.813Z,39.84
2023-03-28T14:53:42.612Z,39.91
2023-03-28T14:58:45.466Z,40.78
2023-03-28T15:03:50.695Z,41.04
2023-03-28T15:08:55.897Z,41.58
2023-03-28T15:14:01.008Z,41.68
2023-03-28T15:19:07.027Z,41.87
2023-03-28T15:24:11.505Z,42.38
2023-03-28T15:29:16.392Z,42.66
2023-03-28T15:34:22.101Z,43.11
2023-03-28T15:39:25.826Z,43.51
2023-03-28T15:44:30.294Z,42.56
2023-03-28T15:49:37.036Z,42.94
2023-03-28T15:54:42.899Z,43.15
2023-03-28T15:59:48.388Z,42.94
2023-03-28T16:05:00.304Z,42.41
2023-03-28T16:10:03.568Z,40.98
2023-03-28T16:15:11.609Z,40.34
2023-03-28T16:20:25.247Z,40.20
2023-03-28T16:25:28.674Z,39.89
2023-03-28T16:30:33.485Z,39.80
2023-03-28T16:35:37.660Z,39.75
2023-03-28T16:40:40.714Z,39.62
2023-03-28T16:45:43.616Z,39.93
2023-03-28T16:50:55.481Z,40.06
2023-03-28T16:55:58.539Z,39.64
2023-03-28T17:01:05.006Z,40.58
2023-03-28T17:06:10.162Z,40.49
2023-03-28T17:11:13.516Z,39.10
2023-03-28T17:16:16.565Z,39.58
2023-03-28T17:21:20.860Z,38.85
2023-03-28T17:26:23.638Z,38.51
2023-03-28T17:31:26.638Z,38.47
2023-03-28T17:36:30.970Z,38.71
2023-03-28T17:41:33.860Z,39.48
2023-03-28T17:46:37.514Z,40.00
2023-03-28T17:51:41.750Z,40.36
2023-03-28T17:56:44.708Z,40.64
2023-03-28T18:01:47.924Z,40.79
2023-03-28T18:06:53.465Z,40.62
2023-03-28T18:11:56.490Z,40.91
2023-03-28T18:16:59.441Z,41.06
2023-03-28T18:22:03.648Z,41.12
2023-03-28T18:27:06.573Z,41.01
2023-03-28T18:32:09.366Z,41.09
2023-03-28T18:37:13.499Z,40.90
2023-03-28T18:42:16.389Z,41.12
2023-03-28T18:47:19.228Z,41.01
2023-03-28T18:52:23.441Z,40.41
2023-03-28T18:57:27.660Z,40.90
2023-03-28T19:02:30.672Z,40.83
2023-03-28T19:07:34.997Z,40.60
2023-03-28T19:12:37.787Z,40.31
2023-03-28T19:17:40.824Z,40.28
2023-03-28T19:22:45.035Z,40.27
2023-03-28T19:27:51.902Z,40.36
2023-03-28T19:32:54.781Z,40.27
2023-03-28T19:37:59.176Z,40.56
2023-03-28T19:43:02.014Z,40.25
2023-03-28T19:48:04.905Z,40.39
2023-03-28T19:53:09.185Z,40.10
2023-03-28T19:58:12.273Z,40.34
2023-03-28T20:03:15.106Z,39.93
2023-03-28T20:08:19.865Z,40.33
2023-03-28T20:13:23.051Z,39.97
2023-03-28T20:18:26.135Z,40.26
2023-03-28T20:23:31.917Z,39.97
2023-03-28T20:28:34.696Z,40.09
2023-03-28T20:33:38.331Z,39.97
2023-03-28T20:38:42.549Z,39.84
2023-03-28T20:43:47.754Z,39.87
2023-03-28T20:48:53.255Z,39.82
2023-03-28T20:53:58.594Z,40.34
2023-03-28T20:59:01.375Z,40.34
2023-03-28T21:04:04.451Z,40.39
2023-03-28T21:09:09.838Z,40.80
2023-03-28T21:14:13.438Z,40.63
2023-03-28T21:19:16.557Z,40.85
2023-03-28T21:24:20.991Z,40.88
2023-03-28T21:29:24.483Z,40.94
2023-03-28T21:34:33.487Z,40.98
2023-03-28T21:39:37.697Z,41.36
2023-03-28T21:44:40.501Z,41.38
2023-03-28T21:49:45.910Z,41.35
2023-03-28T21:54:50.040Z,41.31
2023-03-28T21:59:52.828Z,41.43
2023-03-28T22:04:55.669Z,41.65
2023-03-28T22:10:01.133Z,41.80
2023-03-28T22:15:04.525Z,41.99
2023-03-28T22:20:08.605Z,42.10
2023-03-28T22:25:13.566Z,41.91
2023-03-28T22:30:16.500Z,42.20
2023-03-28T22:35:19.324Z,42.02
2023-03-28T22:40:23.545Z,42.40
2023-03-28T22:45:26.988Z,42.42
2023-03-28T22:50:29.785Z,42.42
2023-03-28T22:55:33.906Z,42.56
2023-03-28T23:00:37.432Z,42.79
2023-03-28T23:05:40.212Z,43.34
2023-03-28T23:10:44.356Z,43.48
2023-03-28T23:15:47.114Z,43.46
2023-03-28T23:20:50.966Z,44.08
2023-03-28T23:25:55.165Z,44.39
2023-03-28T23:30:57.932Z,44.33
2023-03-28T23:36:00.970Z,44.66
2023-03-28T23:41:06.464Z,44.72
2023-03-28T23:46:09.361Z,44.82
2023-03-28T23:51:12.185Z,44.92
2023-03-28T23:56:16.458Z,45.12
